createdAt,value
2022-10-06T00:00:42.329Z,11.40
2022-10-06T00:04:30.106Z,11.70
2022-10-06T00:07:58.655Z,12.00
2022-10-06T00:11:26.963Z,10.60
2022-10-06T00:14:48.259Z,9.50
2022-10-06T00:18:17.072Z,13.60
2022-10-06T00:21:46.047Z,12.10
2022-10-06T00:25:15.046Z,8.80
2022-10-06T00:28:43.967Z,11.80
2022-10-06T00:32:12.720Z,7.30
2022-10-06T00:35:41.426Z,9.40
2022-10-06T00:39:10.018Z,9.10
2022-10-06T00:42:39.037Z,8.90
2022-10-06T00:46:10.357Z,8.70
2022-10-06T00:49:39.054Z,7.50
2022-10-06T00:53:07.855Z,11.50
2022-10-06T00:56:36.551Z,8.00
2022-10-06T01:00:05.267Z,11.40
2022-10-06T01:03:34.230Z,12.00
2022-10-06T01:07:02.912Z,9.10
2022-10-06T01:10:30.087Z,9.50
2022-10-06T01:13:58.865Z,6.80
2022-10-06T01:17:21.839Z,9.20
2022-10-06T01:20:50.521Z,9.30
2022-10-06T01:24:18.997Z,9.70
2022-10-06T01:27:47.806Z,9.10
2022-10-06T01:31:21.195Z,9.60
2022-10-06T01:34:52.867Z,9.60
2022-10-06T01:38:21.454Z,7.80
2022-10-06T01:41:50.018Z,11.20
2022-10-06T01:45:18.605Z,8.60
2022-10-06T01:48:47.322Z,9.80
2022-10-06T01:52:17.337Z,12.10
2022-10-06T01:55:46.255Z,9.80
2022-10-06T01:59:14.881Z,8.10
2022-10-06T02:02:44.595Z,8.30
2022-10-06T02:13:06.375Z,9.00
2022-10-06T02:16:37.738Z,9.10
2022-10-06T02:20:06.585Z,11.10
2022-10-06T02:23:35.378Z,9.40
2022-10-06T02:27:04.391Z,8.10
2022-10-06T02:30:33.772Z,9.20
2022-10-06T02:34:02.466Z,8.40
2022-10-06T02:37:31.152Z,8.90
2022-10-06T02:41:00.287Z,9.40
2022-10-06T02:44:28.856Z,8.00
2022-10-06T02:47:57.430Z,9.80
2022-10-06T02:51:26.337Z,10.80
2022-10-06T02:54:55.085Z,6.70
2022-10-06T02:58:23.709Z,9.60
2022-10-06T03:01:52.276Z,7.20
2022-10-06T03:05:21.090Z,9.60
2022-10-06T03:08:49.654Z,7.20
2022-10-06T03:12:20.985Z,9.10
2022-10-06T03:15:51.005Z,8.40
2022-10-06T04:07:36.131Z,5.50
2022-10-06T04:11:05.133Z,8.50
2022-10-06T04:14:34.027Z,9.20
2022-10-06T04:21:29.304Z,7.80
2022-10-06T04:24:58.663Z,8.50
2022-10-06T04:28:27.953Z,6.80
2022-10-06T04:31:57.392Z,7.70
2022-10-06T04:38:53.838Z,9.50
2022-10-06T04:42:22.476Z,9.70
2022-10-06T04:45:50.492Z,10.20
2022-10-06T04:49:20.525Z,9.60
2022-10-06T04:52:49.833Z,8.90
2022-10-06T04:56:18.624Z,11.00
2022-10-06T04:59:48.752Z,9.00
2022-10-06T05:03:17.429Z,7.70
2022-10-06T05:06:46.440Z,13.80
2022-10-06T05:10:15.773Z,8.10
2022-10-06T05:13:44.413Z,9.30
2022-10-06T05:17:13.037Z,10.90
2022-10-06T05:20:41.717Z,9.40
2022-10-06T05:24:10.609Z,8.30
2022-10-06T05:27:38.492Z,11.20
2022-10-06T05:31:07.367Z,9.90
2022-10-06T05:38:30.835Z,10.00
2022-10-06T05:42:08.463Z,9.60
2022-10-06T05:45:37.101Z,8.70
2022-10-06T05:49:06.803Z,10.30
2022-10-06T05:52:35.469Z,11.40
2022-10-06T05:56:04.057Z,9.30
2022-10-06T05:59:32.751Z,12.30
2022-10-06T06:03:01.653Z,9.60
2022-10-06T06:06:30.434Z,11.10
2022-10-06T06:09:59.130Z,10.80
2022-10-06T06:13:28.127Z,10.00
2022-10-06T06:16:56.899Z,9.40
2022-10-06T06:20:25.821Z,9.10
2022-10-06T06:23:54.581Z,7.70
2022-10-06T06:27:23.167Z,9.30
2022-10-06T06:30:52.115Z,7.50
2022-10-06T06:34:20.785Z,8.20
2022-10-06T06:37:49.587Z,8.50
2022-10-06T06:41:07.005Z,9.40
2022-10-06T06:44:35.599Z,7.10
2022-10-06T06:48:03.471Z,9.30
2022-10-06T06:51:37.639Z,15.10
2022-10-06T06:55:06.361Z,8.10
2022-10-06T06:58:34.916Z,8.70
2022-10-06T07:02:06.846Z,8.20
2022-10-06T07:05:35.627Z,8.80
2022-10-06T07:09:04.841Z,8.40
2022-10-06T07:12:36.498Z,9.30
2022-10-06T07:16:03.914Z,11.00
2022-10-06T07:22:28.570Z,9.50
2022-10-06T07:26:03.342Z,11.20
2022-10-06T07:29:32.845Z,6.80
2022-10-06T07:33:01.622Z,8.10
2022-10-06T07:36:30.198Z,9.80
2022-10-06T07:39:59.031Z,9.40
2022-10-06T07:54:07.170Z,11.90
2022-10-06T08:01:17.832Z,11.40
2022-10-06T08:08:14.083Z,10.40
2022-10-06T08:11:43.599Z,9.50
2022-10-06T08:15:13.547Z,7.30
2022-10-06T08:22:10.535Z,9.50
2022-10-06T08:25:39.492Z,12.80
2022-10-06T08:29:08.107Z,9.70
2022-10-06T08:32:36.796Z,6.10
2022-10-06T08:36:05.406Z,10.90
2022-10-06T08:43:06.659Z,8.00
2022-10-06T08:57:12.543Z,8.80
2022-10-06T09:07:49.000Z,7.90
2022-10-06T09:14:46.014Z,8.00
2022-10-06T09:17:58.106Z,5.90
2022-10-06T09:21:41.619Z,10.20
2022-10-06T09:29:17.298Z,5.40
2022-10-06T09:32:45.957Z,10.50
2022-10-06T09:36:16.346Z,6.20
2022-10-06T09:39:49.593Z,5.20
2022-10-06T09:43:24.992Z,5.30
2022-10-06T09:46:52.148Z,7.80
2022-10-06T09:50:22.180Z,8.00
2022-10-06T09:54:01.928Z,5.50
2022-10-06T09:57:31.685Z,5.30
2022-10-06T10:01:09.390Z,6.40
2022-10-06T10:04:41.909Z,6.00
2022-10-06T10:08:25.609Z,6.00
2022-10-06T10:12:07.846Z,5.90
2022-10-06T10:15:42.004Z,9.90
2022-10-06T10:19:13.201Z,5.10
2022-10-06T10:22:42.010Z,6.10
2022-10-06T10:26:25.650Z,5.40
2022-10-06T10:30:15.755Z,6.40
2022-10-06T10:33:30.608Z,9.10
2022-10-06T10:37:00.119Z,5.20
2022-10-06T10:40:29.322Z,5.70
2022-10-06T10:44:06.758Z,8.00
2022-10-06T10:47:35.629Z,9.20
2022-10-06T10:51:07.228Z,6.10
2022-10-06T10:54:41.862Z,7.00
2022-10-06T10:58:07.217Z,4.80
2022-10-06T11:08:57.151Z,8.70
2022-10-06T11:12:27.477Z,5.60
2022-10-06T11:16:06.436Z,5.90
2022-10-06T11:19:55.003Z,6.40
2022-10-06T11:23:32.790Z,6.30
2022-10-06T11:30:41.061Z,7.90
2022-10-06T11:37:49.290Z,10.40
2022-10-06T11:41:21.725Z,5.60
2022-10-06T11:44:46.623Z,5.90
2022-10-06T11:48:15.455Z,4.40
2022-10-06T11:51:42.378Z,8.70
2022-10-06T11:55:26.012Z,4.90
2022-10-06T11:59:03.570Z,6.20
2022-10-06T12:05:57.114Z,6.80
2022-10-06T12:09:35.431Z,8.60
2022-10-06T12:13:51.004Z,8.10
2022-10-06T12:17:18.474Z,5.30
2022-10-06T12:21:06.022Z,4.80
2022-10-06T12:24:44.013Z,7.20
2022-10-06T12:28:24.844Z,5.50
2022-10-06T12:31:50.520Z,5.60
2022-10-06T12:35:20.547Z,8.50
2022-10-06T12:38:47.586Z,6.30
2022-10-06T12:42:34.740Z,6.10
2022-10-06T12:46:03.678Z,4.30
2022-10-06T12:49:32.817Z,3.90
2022-10-06T12:53:01.742Z,6.20
2022-10-06T12:56:35.719Z,4.50
2022-10-06T13:00:12.474Z,6.80
2022-10-06T13:03:41.421Z,7.00
2022-10-06T13:07:09.982Z,4.30
2022-10-06T13:10:36.545Z,5.70
2022-10-06T13:14:05.318Z,3.40
2022-10-06T13:17:35.249Z,5.20
2022-10-06T13:21:04.339Z,5.50
2022-10-06T13:24:33.522Z,6.70
2022-10-06T13:28:02.967Z,4.30
2022-10-06T13:35:02.906Z,4.90
2022-10-06T13:41:44.406Z,6.20
2022-10-06T13:48:36.256Z,4.20
2022-10-06T13:51:35.044Z,4.20
2022-10-06T13:55:03.970Z,3.80
2022-10-06T13:58:48.006Z,2.90
2022-10-06T14:02:16.654Z,3.70
2022-10-06T14:06:00.437Z,2.70
2022-10-06T14:09:29.156Z,4.30
2022-10-06T14:12:58.168Z,6.20
2022-10-06T14:16:20.703Z,5.90
2022-10-06T14:19:47.860Z,3.40
2022-10-06T14:23:31.619Z,4.20
2022-10-06T14:30:18.294Z,5.90
2022-10-06T14:32:46.173Z,4.60
2022-10-06T14:35:14.099Z,5.10
2022-10-06T14:37:41.825Z,4.40
2022-10-06T14:40:12.206Z,3.50
2022-10-06T14:42:40.130Z,5.10
2022-10-06T14:45:09.037Z,4.80
2022-10-06T14:47:37.348Z,6.20
2022-10-06T14:50:07.469Z,4.30
2022-10-06T14:52:35.232Z,3.50
2022-10-06T14:55:03.097Z,4.80
2022-10-06T14:57:30.963Z,2.50
2022-10-06T14:59:58.987Z,6.20
2022-10-06T15:02:27.276Z,1.90
2022-10-06T15:04:55.174Z,4.90
2022-10-06T15:07:41.470Z,2.70
2022-10-06T15:10:09.543Z,3.30
2022-10-06T15:12:37.410Z,3.70
2022-10-06T15:15:07.651Z,4.60
2022-10-06T15:17:35.898Z,2.60
2022-10-06T15:20:04.189Z,2.80
2022-10-06T15:22:31.957Z,4.20
2022-10-06T15:24:59.813Z,4.00
2022-10-06T15:27:46.310Z,3.70
2022-10-06T15:30:14.178Z,2.70
2022-10-06T15:32:42.146Z,3.50
2022-10-06T15:35:10.008Z,2.90
2022-10-06T15:37:39.511Z,3.30
2022-10-06T15:40:07.746Z,3.80
2022-10-06T15:42:35.549Z,3.90
2022-10-06T15:45:07.495Z,7.30
2022-10-06T15:47:35.689Z,4.00
2022-10-06T15:50:03.668Z,6.60
2022-10-06T15:52:34.085Z,5.40
2022-10-06T15:55:01.845Z,4.90
2022-10-06T15:57:31.347Z,3.30
2022-10-06T15:59:59.111Z,6.00
2022-10-06T16:02:29.270Z,4.80
2022-10-06T16:04:57.095Z,9.60
2022-10-06T16:07:24.957Z,4.20
2022-10-06T16:09:52.983Z,3.50
2022-10-06T16:12:22.942Z,4.60
2022-10-06T16:14:51.525Z,4.20
2022-10-06T16:17:19.327Z,5.80
2022-10-06T16:19:47.461Z,8.30
2022-10-06T16:22:18.252Z,5.90
2022-10-06T16:24:46.059Z,3.80
2022-10-06T16:27:15.770Z,6.80
2022-10-06T16:29:43.637Z,9.60
2022-10-06T16:32:11.449Z,6.80
2022-10-06T16:34:39.249Z,10.00
2022-10-06T16:37:06.978Z,12.20
2022-10-06T16:39:34.786Z,9.00
2022-10-06T16:42:02.652Z,10.60
2022-10-06T16:44:30.526Z,11.50
2022-10-06T16:46:58.362Z,17.70
2022-10-06T16:49:28.195Z,19.40
2022-10-06T16:51:55.960Z,18.60
2022-10-06T16:54:23.929Z,21.10
2022-10-06T16:56:54.197Z,27.90
2022-10-06T16:59:24.208Z,21.20
2022-10-06T17:01:52.179Z,21.00
2022-10-06T17:04:25.585Z,19.50
2022-10-06T17:06:55.761Z,23.00
2022-10-06T17:09:26.285Z,22.70
2022-10-06T17:11:59.894Z,24.00
2022-10-06T17:14:30.651Z,19.00
2022-10-06T17:16:59.523Z,21.70
2022-10-06T17:19:29.828Z,21.40
2022-10-06T17:21:59.804Z,21.70
2022-10-06T17:24:29.243Z,16.40
2022-10-06T17:26:58.342Z,21.10
2022-10-06T17:29:26.623Z,23.40
2022-10-06T17:31:58.994Z,21.90
2022-10-06T17:34:31.942Z,19.20
2022-10-06T17:37:01.822Z,18.40
2022-10-06T17:39:30.059Z,17.50
2022-10-06T17:41:58.023Z,17.60
2022-10-06T17:44:27.598Z,17.20
2022-10-06T17:46:58.632Z,16.80
2022-10-06T17:49:27.371Z,18.20
2022-10-06T17:51:55.949Z,17.50
2022-10-06T17:54:25.789Z,16.80
2022-10-06T17:56:56.207Z,18.20
2022-10-06T17:59:30.971Z,18.30
2022-10-06T18:02:02.625Z,19.00
2022-10-06T18:04:31.449Z,17.70
2022-10-06T18:07:00.357Z,17.40
2022-10-06T18:09:28.211Z,20.90
2022-10-06T18:11:56.941Z,21.40
2022-10-06T18:14:27.016Z,18.90
2022-10-06T18:17:00.989Z,17.50
2022-10-06T18:19:38.500Z,18.50
2022-10-06T18:22:10.619Z,17.10
2022-10-06T18:24:39.915Z,16.80
2022-10-06T18:27:08.658Z,23.30
2022-10-06T18:29:38.196Z,20.50
2022-10-06T18:36:10.996Z,21.20
2022-10-06T18:37:46.666Z,21.30
2022-10-06T18:40:15.008Z,20.30
2022-10-06T18:42:42.905Z,18.90
2022-10-06T18:45:32.220Z,18.30
2022-10-06T18:48:20.465Z,20.10
2022-10-06T18:50:59.278Z,18.40
2022-10-06T18:53:27.044Z,19.00
2022-10-06T18:55:54.806Z,19.00
2022-10-06T18:58:22.573Z,21.60
2022-10-06T19:00:50.470Z,21.80
2022-10-06T19:03:18.300Z,23.10
2022-10-06T19:05:52.975Z,28.80
2022-10-06T19:08:20.739Z,23.60
2022-10-06T19:11:07.086Z,23.20
2022-10-06T19:13:34.951Z,24.10
2022-10-06T19:16:03.185Z,22.10
2022-10-06T19:18:36.708Z,23.40
2022-10-06T19:21:09.296Z,23.30
2022-10-06T19:23:38.906Z,22.10
2022-10-06T19:26:08.512Z,30.20
2022-10-06T19:28:37.774Z,24.90
2022-10-06T19:31:11.975Z,26.10
2022-10-06T19:33:39.843Z,21.10
2022-10-06T19:36:08.988Z,23.10
2022-10-06T19:38:39.615Z,26.00
2022-10-06T19:41:26.940Z,27.70
2022-10-06T19:43:54.711Z,24.80
2022-10-06T19:46:22.664Z,24.70
2022-10-06T19:48:55.455Z,24.30
2022-10-06T19:51:24.131Z,21.70
2022-10-06T19:53:52.043Z,23.80
2022-10-06T19:56:25.167Z,23.00
2022-10-06T19:58:53.263Z,24.30
2022-10-06T20:01:21.074Z,21.90
2022-10-06T20:03:48.938Z,24.80
2022-10-06T20:06:17.154Z,25.20
2022-10-06T20:08:45.120Z,25.10
2022-10-06T20:11:15.844Z,22.00
2022-10-06T20:13:45.109Z,22.60
2022-10-06T20:16:17.492Z,23.30
2022-10-06T20:18:48.268Z,28.90
2022-10-06T20:21:25.159Z,28.10
2022-10-06T20:23:56.546Z,26.40
2022-10-06T20:26:38.665Z,32.30
2022-10-06T20:29:09.735Z,32.40
2022-10-06T20:31:43.749Z,26.70
2022-10-06T20:34:14.587Z,31.70
2022-10-06T20:36:43.227Z,36.40
2022-10-06T20:39:34.428Z,32.30
2022-10-06T20:42:03.268Z,28.90
2022-10-06T20:44:31.028Z,30.70
2022-10-06T20:46:58.900Z,30.60
2022-10-06T20:49:26.656Z,29.80
2022-10-06T20:51:55.146Z,27.10
2022-10-06T20:54:26.691Z,27.60
2022-10-06T20:56:55.888Z,29.80
2022-10-06T20:59:25.083Z,22.00
2022-10-06T21:01:53.120Z,28.70
2022-10-06T21:04:21.846Z,28.00
2022-10-06T21:06:50.269Z,28.60
2022-10-06T21:09:19.725Z,27.30
2022-10-06T21:11:49.138Z,23.30
2022-10-06T21:14:17.738Z,29.10
2022-10-06T21:16:48.041Z,26.80
2022-10-06T21:19:18.306Z,23.50
2022-10-06T21:21:53.570Z,27.60
2022-10-06T21:24:21.464Z,24.80
2022-10-06T21:26:50.521Z,28.00
2022-10-06T21:29:18.332Z,23.50
2022-10-06T21:31:46.690Z,25.50
2022-10-06T21:34:14.865Z,28.20
2022-10-06T21:36:44.385Z,24.70
2022-10-06T21:39:13.576Z,25.40
2022-10-06T21:41:42.467Z,28.90
2022-10-06T21:44:15.567Z,28.20
2022-10-06T21:46:54.396Z,23.40
2022-10-06T21:49:24.542Z,23.70
2022-10-06T21:51:54.813Z,26.80
2022-10-06T21:54:23.725Z,29.40
2022-10-06T21:56:52.278Z,29.90
2022-10-06T21:59:20.566Z,25.90
2022-10-06T22:01:51.694Z,26.00
2022-10-06T22:04:19.667Z,27.00
2022-10-06T22:06:52.038Z,27.00
2022-10-06T22:09:21.131Z,23.60
2022-10-06T22:11:49.405Z,27.20
2022-10-06T22:14:19.116Z,27.90
2022-10-06T22:16:48.505Z,26.90
2022-10-06T22:19:18.207Z,32.60
2022-10-06T22:21:48.055Z,26.40
2022-10-06T22:24:19.075Z,25.20
2022-10-06T22:26:48.217Z,29.40
2022-10-06T22:29:18.906Z,21.30
2022-10-06T22:31:48.214Z,24.50
2022-10-06T22:34:19.965Z,25.80
2022-10-06T22:36:48.029Z,25.70
2022-10-06T22:39:16.409Z,24.90
2022-10-06T22:41:45.483Z,27.80
2022-10-06T22:44:13.369Z,22.60
2022-10-06T22:46:41.610Z,26.00
2022-10-06T22:49:09.514Z,28.00
2022-10-06T22:51:37.372Z,24.20
2022-10-06T22:54:05.456Z,25.40
2022-10-06T22:56:34.545Z,26.60
2022-10-06T22:59:02.566Z,24.30
2022-10-06T23:01:30.782Z,31.80
2022-10-06T23:04:00.189Z,24.10
2022-10-06T23:06:32.061Z,26.20
2022-10-06T23:09:00.335Z,26.60
2022-10-06T23:11:28.702Z,25.60
2022-10-06T23:13:56.769Z,26.20
2022-10-06T23:16:24.800Z,27.30
2022-10-06T23:18:52.802Z,25.40
2022-10-06T23:21:23.328Z,24.10
2022-10-06T23:24:01.037Z,25.70
2022-10-06T23:26:29.416Z,23.30
2022-10-06T23:28:59.729Z,22.60
2022-10-06T23:31:29.121Z,22.40
2022-10-06T23:33:57.715Z,22.50
2022-10-06T23:36:25.679Z,23.70
2022-10-06T23:38:53.644Z,22.70
2022-10-06T23:41:22.335Z,22.80
2022-10-06T23:43:50.289Z,22.80
2022-10-06T23:46:18.224Z,20.20
2022-10-06T23:48:46.133Z,22.80
2022-10-06T23:51:15.718Z,23.20
2022-10-06T23:53:44.628Z,19.40
2022-10-06T23:56:13.427Z,22.20
2022-10-06T23:58:42.652Z,26.00
